createdAt,value
2018-08-11T00:12:31.478Z,5.70
2018-08-11T00:27:31.756Z,5.72
2018-08-11T00:33:31.616Z,5.85
2018-08-11T00:42:31.449Z,5.92
2018-08-11T00:54:32.156Z,6.87
2018-08-11T01:03:31.841Z,5.90
2018-08-11T01:12:31.785Z,6.58
2018-08-11T01:21:31.441Z,6.70
2018-08-11T01:42:31.876Z,6.20
2018-08-11T01:54:31.524Z,6.87
2018-08-11T02:09:31.850Z,7.13
2018-08-11T02:30:31.571Z,6.80
2018-08-11T02:45:31.861Z,6.28
2018-08-11T02:54:31.824Z,7.20
2018-08-11T03:03:32.401Z,6.37
2018-08-11T03:21:32.226Z,6.70
2018-08-11T03:42:31.848Z,6.50
2018-08-11T03:51:31.735Z,7.78
2018-08-11T04:03:31.480Z,6.78
2018-08-11T04:18:31.750Z,6.67
2018-08-11T04:27:31.561Z,6.50
2018-08-11T04:42:31.705Z,7.00
2018-08-11T04:54:31.603Z,8.15
2018-08-11T05:03:32.266Z,7.20
2018-08-11T05:27:31.516Z,7.08
2018-08-11T06:06:31.682Z,9.30
2018-08-11T06:24:32.046Z,9.38
2018-08-11T06:36:01.403Z,10.43
2018-08-11T06:38:30.644Z,8.45
2018-08-11T06:41:00.619Z,8.63
2018-08-11T06:43:29.811Z,9.73
2018-08-11T06:45:59.055Z,9.70
2018-08-11T06:48:28.254Z,9.88
2018-08-11T06:50:57.483Z,9.88
2018-08-11T06:53:34.416Z,7.67
2018-08-11T06:56:32.572Z,9.73
2018-08-11T07:02:32.072Z,9.00
2018-08-11T07:11:09.389Z,10.25
2018-08-11T07:16:36.364Z,9.38
2018-08-11T07:19:32.461Z,10.07
2018-08-11T07:40:31.636Z,9.60
2018-08-11T08:01:31.784Z,8.45
2018-08-11T08:13:31.756Z,7.60
2018-08-11T08:28:31.673Z,6.45
2018-08-11T08:49:31.820Z,6.50
2018-08-11T08:58:32.240Z,6.55
2018-08-11T09:07:32.031Z,7.08
2018-08-11T09:16:32.386Z,7.15
2018-08-11T09:22:32.255Z,7.17
2018-08-11T09:34:31.802Z,6.53
2018-08-11T10:07:32.313Z,6.60
2018-08-11T10:16:32.980Z,6.40
2018-08-11T10:22:32.317Z,6.20
2018-08-11T10:28:32.063Z,5.60
2018-08-11T10:37:32.393Z,7.00
2018-08-11T10:40:49.692Z,6.30
2018-08-11T10:43:35.130Z,5.40
2018-08-11T10:46:33.290Z,7.17
2018-08-11T10:59:57.037Z,6.10
2018-08-11T11:02:35.901Z,5.80
2018-08-11T11:05:32.217Z,6.80
2018-08-11T11:08:32.404Z,6.00
2018-08-11T11:13:55.541Z,5.90
2018-08-11T11:16:34.745Z,6.20
2018-08-11T11:22:32.256Z,5.83
2018-08-11T11:47:31.995Z,6.33
2018-08-11T11:56:32.342Z,6.60
2018-08-11T12:05:03.458Z,7.10
2018-08-11T12:07:36.251Z,5.80
2018-08-11T12:10:05.714Z,6.00
2018-08-11T12:12:34.864Z,5.72
2018-08-11T12:15:04.076Z,6.30
2018-08-11T12:17:33.261Z,6.60
2018-08-11T12:20:02.470Z,6.17
2018-08-11T12:22:31.665Z,5.67
2018-08-11T12:25:00.845Z,6.25
2018-08-11T12:27:30.096Z,5.77
2018-08-11T12:32:59.621Z,5.80
2018-08-11T12:35:28.954Z,6.87
2018-08-11T12:37:58.163Z,6.28
2018-08-11T12:40:27.569Z,5.77
2018-08-11T12:42:56.766Z,5.50
2018-08-11T12:45:25.985Z,6.05
2018-08-11T12:47:55.168Z,9.30
2018-08-11T12:50:24.783Z,6.22
2018-08-11T12:52:53.945Z,5.62
2018-08-11T12:55:23.254Z,6.20
2018-08-11T13:00:52.586Z,5.70
2018-08-11T13:03:21.876Z,6.70
2018-08-11T13:05:51.074Z,6.50
2018-08-11T13:08:20.322Z,5.80
2018-08-11T13:10:49.482Z,5.20
2018-08-11T13:13:18.635Z,5.75
2018-08-11T13:15:47.972Z,6.20
2018-08-11T13:18:17.254Z,5.62
2018-08-11T13:20:46.610Z,5.70
2018-08-11T13:23:15.761Z,6.58
2018-08-11T13:25:45.021Z,5.75
2018-08-11T13:28:14.237Z,5.70
2018-08-11T13:30:43.523Z,5.85
2018-08-11T13:33:12.857Z,6.08
2018-08-11T13:35:42.123Z,9.40
2018-08-11T13:38:34.465Z,6.33
2018-08-11T13:41:32.439Z,8.33
2018-08-11T14:02:32.601Z,6.87
2018-08-11T14:14:32.185Z,7.40
2018-08-11T14:26:02.822Z,7.60
2018-08-11T14:28:32.014Z,7.70
2018-08-11T14:31:01.161Z,6.80
2018-08-11T14:33:30.372Z,8.50
2018-08-11T14:39:00.045Z,6.22
2018-08-11T14:41:29.297Z,6.00
2018-08-11T14:43:58.604Z,5.80
2018-08-11T14:46:27.868Z,6.70
2018-08-11T14:51:57.372Z,5.60
2018-08-11T14:54:26.590Z,6.03
2018-08-11T14:56:55.751Z,5.60
2018-08-11T14:59:24.966Z,5.90
2018-08-11T15:01:54.228Z,7.53
2018-08-11T15:04:23.482Z,5.90
2018-08-11T15:06:52.678Z,6.15
2018-08-11T15:09:34.698Z,5.92
2018-08-11T15:12:03.920Z,6.45
2018-08-11T15:14:33.103Z,5.47
2018-08-11T15:17:02.405Z,5.80
2018-08-11T15:19:31.572Z,6.40
2018-08-11T15:22:00.750Z,6.10
2018-08-11T15:24:31.048Z,6.00
2018-08-11T15:27:00.276Z,6.00
2018-08-11T15:29:30.244Z,6.35
2018-08-11T15:35:00.211Z,5.62
2018-08-11T15:37:35.022Z,8.10
2018-08-11T15:40:04.845Z,5.80
2018-08-11T15:42:35.822Z,7.20
2018-08-11T15:45:32.339Z,7.28
2018-08-11T15:51:02.491Z,7.58
2018-08-11T15:53:35.305Z,7.57
2018-08-11T15:56:04.567Z,6.85
2018-08-11T15:58:35.224Z,9.87
2018-08-11T16:01:04.497Z,6.60
2018-08-11T16:03:33.713Z,6.95
2018-08-11T16:06:02.923Z,7.20
2018-08-11T16:08:32.140Z,6.03
2018-08-11T16:11:01.537Z,5.50
2018-08-11T16:13:36.937Z,5.70
2018-08-11T16:16:06.296Z,5.70
2018-08-11T16:18:35.444Z,7.35
2018-08-11T16:21:04.822Z,6.50
2018-08-11T16:23:34.009Z,7.13
2018-08-11T16:26:32.233Z,6.50
2018-08-11T16:29:01.506Z,5.70
2018-08-11T16:31:30.667Z,6.12
2018-08-11T16:33:59.886Z,5.30
2018-08-11T16:36:29.045Z,6.10
2018-08-11T16:38:58.321Z,5.60
2018-08-11T16:41:35.034Z,6.30
2018-08-11T16:44:04.342Z,6.60
2018-08-11T16:46:35.190Z,5.67
2018-08-11T16:49:04.349Z,6.50
2018-08-11T16:51:33.702Z,6.00
2018-08-11T16:54:02.937Z,6.53
2018-08-11T16:59:13.502Z,6.92
2018-08-11T17:01:42.697Z,6.97
2018-08-11T17:04:11.856Z,7.53
2018-08-11T17:06:41.115Z,6.25
2018-08-11T17:09:33.064Z,6.55
2018-08-11T17:12:02.452Z,7.90
2018-08-11T17:14:31.651Z,7.00
2018-08-11T17:18:54.482Z,7.67
2018-08-11T17:21:23.686Z,6.60
2018-08-11T17:26:53.748Z,6.45
2018-08-11T17:29:22.905Z,7.22
2018-08-11T17:31:52.101Z,5.78
2018-08-11T17:34:21.351Z,5.60
2018-08-11T17:36:50.566Z,5.70
2018-08-11T17:39:19.737Z,6.35
2018-08-11T17:41:48.940Z,6.67
2018-08-11T17:44:18.160Z,6.58
2018-08-11T17:46:47.401Z,7.50
2018-08-11T17:49:16.552Z,7.25
2018-08-11T17:51:45.841Z,7.45
2018-08-11T17:54:15.018Z,6.17
2018-08-11T17:56:44.169Z,8.10
2018-08-11T17:59:13.384Z,7.80
2018-08-11T18:01:42.534Z,8.25
2018-08-11T18:04:11.718Z,9.50
2018-08-11T18:06:40.968Z,6.55
2018-08-11T18:09:11.593Z,8.30
2018-08-11T18:11:41.366Z,8.00
2018-08-11T18:14:10.997Z,6.17
2018-08-11T18:16:40.486Z,11.33
2018-08-11T18:19:33.268Z,8.53
2018-08-11T18:22:32.062Z,5.95
2018-08-11T18:28:01.461Z,6.30
2018-08-11T18:30:36.839Z,7.37
2018-08-11T18:33:32.557Z,6.60
2018-08-11T18:36:01.773Z,6.20
2018-08-11T18:38:30.957Z,6.80
2018-08-11T18:41:00.785Z,6.72
2018-08-11T18:43:30.069Z,7.33
2018-08-11T18:45:59.185Z,6.00
2018-08-11T18:48:33.372Z,6.50
2018-08-11T18:51:02.568Z,6.50
2018-08-11T18:53:31.770Z,6.70
2018-08-11T18:56:00.921Z,6.60
2018-08-11T18:58:30.118Z,6.80
2018-08-11T19:00:59.361Z,6.55
2018-08-11T19:03:28.620Z,6.85
2018-08-11T19:05:57.834Z,6.30
2018-08-11T19:08:27.093Z,6.62
2018-08-11T19:10:56.375Z,8.10
2018-08-11T19:13:35.673Z,7.05
2018-08-11T19:16:04.915Z,6.70
2018-08-11T19:18:35.112Z,6.67
2018-08-11T19:21:04.322Z,6.22
2018-08-11T19:23:33.537Z,6.33
2018-08-11T19:26:03.477Z,7.00
2018-08-11T19:28:36.530Z,7.00
2018-08-11T19:31:05.742Z,7.70
2018-08-11T19:33:35.000Z,7.50
2018-08-11T19:36:04.178Z,8.35
2018-08-11T19:38:33.402Z,9.48
2018-08-11T19:41:02.768Z,8.45
2018-08-11T19:43:36.095Z,7.60
2018-08-11T19:46:05.367Z,7.90
2018-08-11T19:48:34.582Z,7.60
2018-08-11T19:51:03.802Z,7.70
2018-08-11T19:53:33.017Z,8.50
2018-08-11T19:56:02.512Z,8.65
2018-08-11T19:58:31.782Z,8.95
2018-08-11T20:01:01.050Z,8.37
2018-08-11T20:03:30.185Z,7.80
2018-08-11T20:05:59.400Z,8.70
2018-08-11T20:08:33.848Z,7.90
2018-08-11T20:11:03.312Z,8.43
2018-08-11T20:13:32.555Z,8.95
2018-08-11T20:16:01.793Z,7.80
2018-08-11T20:18:36.548Z,9.00
2018-08-11T20:21:05.866Z,8.40
2018-08-11T20:23:35.121Z,8.90
2018-08-11T20:26:04.329Z,8.55
2018-08-11T20:28:33.595Z,9.18
2018-08-11T20:31:02.858Z,9.08
2018-08-11T20:33:32.181Z,8.87
2018-08-11T20:36:01.452Z,8.90
2018-08-11T20:38:33.745Z,10.08
2018-08-11T20:41:03.089Z,9.53
2018-08-11T20:43:32.203Z,9.40
2018-08-11T20:46:02.364Z,9.05
2018-08-11T20:48:31.602Z,8.70
2018-08-11T20:51:00.789Z,9.05
2018-08-11T20:53:36.052Z,9.20
2018-08-11T20:56:05.252Z,9.20
2018-08-11T20:58:34.622Z,9.18
2018-08-11T21:01:04.554Z,9.40
2018-08-11T21:03:33.785Z,10.08
2018-08-11T21:06:03.460Z,9.03
2018-08-11T21:08:32.675Z,10.43
2018-08-11T21:11:02.103Z,9.30
2018-08-11T21:13:32.328Z,9.90
2018-08-11T21:16:01.714Z,9.48
2018-08-11T21:18:30.975Z,9.95
2018-08-11T21:21:00.898Z,10.10
2018-08-11T21:23:30.300Z,9.30
2018-08-11T21:25:59.494Z,9.40
2018-08-11T21:28:29.119Z,9.45
2018-08-11T21:30:58.410Z,9.65
2018-08-11T21:33:27.669Z,9.75
2018-08-11T21:35:57.038Z,9.75
2018-08-11T21:38:26.418Z,9.15
2018-08-11T21:40:55.713Z,9.35
2018-08-11T21:43:24.958Z,10.40
2018-08-11T21:45:54.196Z,9.00
2018-08-11T21:48:36.079Z,9.40
2018-08-11T21:51:05.271Z,8.68
2018-08-11T21:53:34.548Z,9.00
2018-08-11T21:56:03.811Z,8.83
2018-08-11T21:58:32.988Z,9.88
2018-08-11T22:01:12.009Z,8.48
2018-08-11T22:03:42.218Z,9.03
2018-08-11T22:06:11.398Z,9.30
2018-08-11T22:08:40.937Z,9.60
2018-08-11T22:11:10.271Z,9.65
2018-08-11T22:13:39.479Z,9.30
2018-08-11T22:16:34.591Z,10.57
2018-08-11T22:19:03.768Z,9.53
2018-08-11T22:21:32.937Z,8.70
2018-08-11T22:24:02.126Z,9.73
2018-08-11T22:26:31.283Z,9.33
2018-08-11T22:29:00.465Z,9.80
2018-08-11T22:31:29.688Z,8.85
2018-08-11T22:33:58.845Z,9.35
2018-08-11T22:36:28.006Z,9.85
2018-08-11T22:38:57.348Z,9.45
2018-08-11T22:41:26.485Z,9.53
2018-08-11T22:43:55.657Z,8.48
2018-08-11T22:46:24.897Z,9.60
2018-08-11T22:48:54.209Z,8.45
2018-08-11T22:51:23.369Z,9.58
2018-08-11T22:53:52.561Z,9.63
2018-08-11T22:56:21.782Z,9.40
2018-08-11T22:58:50.966Z,9.68
2018-08-11T23:01:20.414Z,8.67
2018-08-11T23:03:49.637Z,9.40
2018-08-11T23:06:18.833Z,8.68
2018-08-11T23:08:48.049Z,9.23
2018-08-11T23:11:34.533Z,9.20
2018-08-11T23:14:03.918Z,8.45
2018-08-11T23:16:33.096Z,8.90
2018-08-11T23:19:02.280Z,8.13
2018-08-11T23:21:31.464Z,10.85
2018-08-11T23:24:00.640Z,9.05
2018-08-11T23:26:29.793Z,9.90
2018-08-11T23:28:59.000Z,9.65
2018-08-11T23:31:28.156Z,8.70
2018-08-11T23:33:57.380Z,9.50
2018-08-11T23:36:26.626Z,8.30
2018-08-11T23:38:55.794Z,8.83
2018-08-11T23:41:25.002Z,8.30
2018-08-11T23:43:54.246Z,8.88
2018-08-11T23:46:23.472Z,8.20
2018-08-11T23:48:53.013Z,7.58
2018-08-11T23:51:22.223Z,7.80
2018-08-11T23:53:51.375Z,8.93
2018-08-11T23:56:20.744Z,9.53
2018-08-11T23:58:49.945Z,10.70
